Time;durP1;ratioP1;P1;durP2;ratioP2;P2;SDS_P1;SDS_P2;PMS_P1;PMS_P2;Temp;Humidity;BMP_temperature;BMP_pressure;BME280_temperature;BME280_humidity;BME280_pressure;Samples;Min_cycle;Max_cycle;Signal;HPM_P1;HPM_P2
2022/10/26 00:01:44;;;;;;;12.57;4.80;;;;;;;;;;12905562;23;20000;-76
2022/10/26 00:06:49;;;;;;;15.40;5.05;;;;;;;;;;12907598;23;20020;-78
2022/10/26 00:11:49;;;;;;;13.52;4.53;;;;;;;;;;12913063;23;20071;-80
2022/10/26 00:16:49;;;;;;;21.35;5.05;;;;;;;;;;12906679;22;20024;-79
2022/10/26 00:21:50;;;;;;;9.98;4.70;;;;;;;;;;12909037;23;20002;-77
2022/10/26 00:26:51;;;;;;;19.50;5.25;;;;;;;;;;12929090;23;20421;-74
2022/10/26 00:31:53;;;;;;;14.75;4.82;;;;;;;;;;12957212;22;19996;-74
2022/10/26 00:36:53;;;;;;;11.77;5.20;;;;;;;;;;12977008;22;20043;-73
2022/10/26 00:41:53;;;;;;;16.73;4.75;;;;;;;;;;12938637;23;20035;-75
2022/10/26 00:46:53;;;;;;;15.50;4.70;;;;;;;;;;12908726;23;20447;-80
2022/10/26 00:51:54;;;;;;;13.93;5.18;;;;;;;;;;12906465;23;20388;-80
2022/10/26 00:56:54;;;;;;;13.57;4.57;;;;;;;;;;12906042;22;20342;-80
2022/10/26 01:01:54;;;;;;;12.10;4.20;;;;;;;;;;12927225;23;20020;-81
2022/10/26 01:06:56;;;;;;;13.37;4.63;;;;;;;;;;12906078;23;20038;-80
2022/10/26 01:11:56;;;;;;;15.38;5.15;;;;;;;;;;12910262;23;20142;-80
2022/10/26 01:17:06;;;;;;;20.88;5.35;;;;;;;;;;12910613;23;20514;-80
2022/10/26 01:22:14;;;;;;;14.23;3.58;;;;;;;;;;12909608;23;20007;-82
2022/10/26 01:27:29;;;;;;;12.93;4.60;;;;;;;;;;12909221;23;19993;-81
2022/10/26 01:32:43;;;;;;;6.55;4.05;;;;;;;;;;12932519;22;20506;-80
2022/10/26 01:38:03;;;;;;;15.95;4.75;;;;;;;;;;12909325;23;20454;-78
2022/10/26 01:43:06;;;;;;;11.57;4.80;;;;;;;;;;12907659;23;20000;-79
2022/10/26 01:48:08;;;;;;;8.32;4.03;;;;;;;;;;12909698;23;20333;-83
2022/10/26 01:53:10;;;;;;;13.43;5.05;;;;;;;;;;12910165;23;20555;-81
2022/10/26 01:58:17;;;;;;;12.20;5.35;;;;;;;;;;12909195;23;19996;-80
2022/10/26 02:03:47;;;;;;;12.45;6.22;;;;;;;;;;12911614;22;20082;-81
2022/10/26 02:09:06;;;;;;;14.85;5.25;;;;;;;;;;12883268;23;19995;-83
2022/10/26 02:14:16;;;;;;;12.45;4.55;;;;;;;;;;12908614;23;20071;-74
2022/10/26 02:19:35;;;;;;;13.10;5.25;;;;;;;;;;12931153;22;20016;-78
2022/10/26 02:24:36;;;;;;;12.55;4.80;;;;;;;;;;12916659;23;20003;-79
2022/10/26 02:29:38;;;;;;;15.75;5.82;;;;;;;;;;12907431;22;20448;-78
2022/10/26 02:34:39;;;;;;;11.15;5.50;;;;;;;;;;12882638;23;19999;-81
2022/10/26 02:39:39;;;;;;;18.30;6.45;;;;;;;;;;12931593;22;20391;-75
2022/10/26 02:44:51;;;;;;;19.33;6.45;;;;;;;;;;12907180;23;20001;-74
2022/10/26 02:49:51;;;;;;;18.45;5.93;;;;;;;;;;12930812;22;19992;-83
2022/10/26 02:54:55;;;;;;;26.27;6.43;;;;;;;;;;12907753;23;20000;-75
2022/10/26 02:59:55;;;;;;;22.35;7.82;;;;;;;;;;12919090;23;19999;-72
2022/10/26 03:04:56;;;;;;;19.27;7.40;;;;;;;;;;12933720;22;20056;-74
2022/10/26 03:09:56;;;;;;;21.40;8.00;;;;;;;;;;12956532;22;19995;-81
2022/10/26 03:14:56;;;;;;;29.20;8.02;;;;;;;;;;12932199;23;20099;-77
2022/10/26 03:19:57;;;;;;;22.55;8.90;;;;;;;;;;12913948;23;20022;-79
2022/10/26 03:24:57;;;;;;;23.87;9.03;;;;;;;;;;12907694;23;20069;-74
2022/10/26 03:29:57;;;;;;;18.05;8.73;;;;;;;;;;12906841;22;20067;-75
2022/10/26 03:34:58;;;;;;;16.98;8.77;;;;;;;;;;12906543;23;19996;-81
2022/10/26 03:39:58;;;;;;;30.27;8.80;;;;;;;;;;12881055;23;20000;-81
2022/10/26 03:44:58;;;;;;;22.70;8.70;;;;;;;;;;12929197;22;19996;-77
2022/10/26 03:49:59;;;;;;;22.40;9.57;;;;;;;;;;12906892;23;19988;-78
2022/10/26 03:54:59;;;;;;;30.10;9.88;;;;;;;;;;12906179;23;20444;-77
2022/10/26 04:00:00;;;;;;;20.20;9.10;;;;;;;;;;12928863;22;19998;-79
2022/10/26 04:05:00;;;;;;;19.58;8.60;;;;;;;;;;12905381;22;20074;-77
2022/10/26 04:10:00;;;;;;;30.33;10.77;;;;;;;;;;12906111;23;20099;-74
2022/10/26 04:15:00;;;;;;;25.77;9.60;;;;;;;;;;12927811;22;19996;-79
2022/10/26 04:20:01;;;;;;;24.88;10.60;;;;;;;;;;12905140;22;20070;-81
2022/10/26 04:25:02;;;;;;;25.73;10.32;;;;;;;;;;12905438;22;20570;-79
2022/10/26 04:30:02;;;;;;;28.20;11.52;;;;;;;;;;12905398;23;20000;-80
2022/10/26 04:35:02;;;;;;;33.03;10.73;;;;;;;;;;12905294;23;19992;-78
2022/10/26 04:40:03;;;;;;;32.07;11.50;;;;;;;;;;12905673;23;20880;-79
2022/10/26 04:45:03;;;;;;;33.22;12.07;;;;;;;;;;12905748;23;19996;-79
2022/10/26 04:50:04;;;;;;;45.03;12.80;;;;;;;;;;12931698;22;20023;-78
2022/10/26 04:55:05;;;;;;;38.03;14.23;;;;;;;;;;12931149;22;19988;-81
2022/10/26 05:00:05;;;;;;;37.90;13.55;;;;;;;;;;12908421;23;20079;-80
2022/10/26 05:05:06;;;;;;;42.90;10.77;;;;;;;;;;12908495;22;20020;-82
2022/10/26 05:10:06;;;;;;;33.40;13.17;;;;;;;;;;12908332;23;20429;-81
2022/10/26 05:15:07;;;;;;;29.63;11.52;;;;;;;;;;12929053;22;20265;-79
2022/10/26 05:20:11;;;;;;;29.48;11.95;;;;;;;;;;12904267;23;20209;-76
2022/10/26 05:25:12;;;;;;;29.58;12.40;;;;;;;;;;12905947;22;20447;-78
2022/10/26 05:30:13;;;;;;;29.45;11.25;;;;;;;;;;12911638;22;19992;-77
2022/10/26 05:35:13;;;;;;;23.52;11.32;;;;;;;;;;12906759;22;19996;-77
2022/10/26 05:40:15;;;;;;;40.47;11.20;;;;;;;;;;12912439;23;19992;-76
2022/10/26 05:45:18;;;;;;;41.95;10.52;;;;;;;;;;12930800;22;19992;-78
2022/10/26 05:50:19;;;;;;;30.92;10.43;;;;;;;;;;12910479;23;20471;-73
2022/10/26 05:55:19;;;;;;;27.30;10.40;;;;;;;;;;12908063;23;20016;-76
2022/10/26 06:00:21;;;;;;;31.47;11.90;;;;;;;;;;12910127;23;20765;-77
2022/10/26 06:05:23;;;;;;;26.13;10.45;;;;;;;;;;12911598;23;20263;-79
2022/10/26 06:10:23;;;;;;;36.95;12.75;;;;;;;;;;12909921;23;20263;-77
2022/10/26 06:15:24;;;;;;;24.17;10.95;;;;;;;;;;12909858;22;20618;-79
2022/10/26 06:20:28;;;;;;;21.38;8.45;;;;;;;;;;12911954;23;20456;-78
2022/10/26 06:25:47;;;;;;;23.67;9.25;;;;;;;;;;12912171;23;20467;-81
2022/10/26 06:30:48;;;;;;;23.92;9.00;;;;;;;;;;12911815;23;20325;-75
2022/10/26 06:35:48;;;;;;;22.13;8.65;;;;;;;;;;12911147;23;20007;-78
2022/10/26 06:40:51;;;;;;;30.48;8.60;;;;;;;;;;12911786;23;20006;-76
2022/10/26 06:46:16;;;;;;;19.02;9.23;;;;;;;;;;12909242;23;20519;-79
2022/10/26 06:51:16;;;;;;;33.28;11.60;;;;;;;;;;12909143;23;20321;-74
2022/10/26 06:56:17;;;;;;;24.02;9.07;;;;;;;;;;12930767;23;19984;-77
2022/10/26 07:01:17;;;;;;;20.27;8.35;;;;;;;;;;12908983;22;20345;-73
2022/10/26 07:06:18;;;;;;;23.70;8.02;;;;;;;;;;12909858;23;20024;-74
2022/10/26 07:11:18;;;;;;;18.08;7.90;;;;;;;;;;12910454;23;20051;-77
2022/10/26 07:16:19;;;;;;;33.67;8.40;;;;;;;;;;12909188;22;19996;-73
2022/10/26 07:21:20;;;;;;;16.08;8.20;;;;;;;;;;12908912;23;20437;-75
2022/10/26 07:26:20;;;;;;;20.40;7.70;;;;;;;;;;12933280;22;19988;-79
2022/10/26 07:31:20;;;;;;;12.98;6.13;;;;;;;;;;12910226;23;20103;-74
2022/10/26 07:36:20;;;;;;;10.77;5.47;;;;;;;;;;12932539;22;20011;-75
2022/10/26 07:41:21;;;;;;;12.82;5.55;;;;;;;;;;12909676;23;20313;-78
2022/10/26 07:46:21;;;;;;;12.93;4.93;;;;;;;;;;12908412;23;19988;-73
2022/10/26 07:51:21;;;;;;;22.55;5.85;;;;;;;;;;12910246;23;19988;-75
2022/10/26 07:56:22;;;;;;;20.87;6.00;;;;;;;;;;12910192;23;19989;-74
2022/10/26 08:01:22;;;;;;;21.35;5.40;;;;;;;;;;12931446;22;20340;-78
2022/10/26 08:06:23;;;;;;;14.93;4.60;;;;;;;;;;12907843;23;20016;-74
2022/10/26 08:11:23;;;;;;;8.98;4.43;;;;;;;;;;12928583;23;20473;-78
2022/10/26 08:16:23;;;;;;;9.05;4.13;;;;;;;;;;12909642;23;20071;-73
2022/10/26 08:21:23;;;;;;;14.68;4.47;;;;;;;;;;12908568;23;20004;-74
2022/10/26 08:26:24;;;;;;;10.77;4.68;;;;;;;;;;12909482;23;20014;-76
2022/10/26 08:31:24;;;;;;;17.35;4.55;;;;;;;;;;12909703;23;19993;-75
2022/10/26 08:36:25;;;;;;;15.75;5.95;;;;;;;;;;12910801;23;20003;-74
2022/10/26 08:41:28;;;;;;;14.73;4.45;;;;;;;;;;12933155;22;20437;-74
2022/10/26 08:46:32;;;;;;;11.07;4.15;;;;;;;;;;12907728;23;20103;-76
2022/10/26 08:51:34;;;;;;;11.15;4.15;;;;;;;;;;12932153;22;19992;-74
2022/10/26 08:56:38;;;;;;;8.52;4.03;;;;;;;;;;12909724;23;20075;-74
2022/10/26 09:01:40;;;;;;;10.65;3.67;;;;;;;;;;12913677;23;20008;-77
2022/10/26 09:06:59;;;;;;;8.88;4.28;;;;;;;;;;12914604;22;20012;-75
2022/10/26 09:11:59;;;;;;;7.85;3.47;;;;;;;;;;12908314;23;19992;-79
2022/10/26 09:17:05;;;;;;;8.20;2.83;;;;;;;;;;12909581;23;19993;-79
2022/10/26 09:22:08;;;;;;;10.85;2.78;;;;;;;;;;12908356;23;20044;-74
2022/10/26 09:27:08;;;;;;;8.68;3.45;;;;;;;;;;12908954;23;20013;-74
2022/10/26 09:32:17;;;;;;;10.40;2.72;;;;;;;;;;12933433;22;20019;-73
2022/10/26 09:37:23;;;;;;;8.38;3.17;;;;;;;;;;12933444;22;20080;-73
2022/10/26 09:42:42;;;;;;;8.93;2.13;;;;;;;;;;12912952;23;20019;-74
2022/10/26 09:47:49;;;;;;;11.90;3.25;;;;;;;;;;12936310;22;19996;-75
2022/10/26 09:52:50;;;;;;;3.95;1.65;;;;;;;;;;12911750;23;19995;-78
2022/10/26 09:57:52;;;;;;;7.80;2.20;;;;;;;;;;12911677;23;19993;-74
2022/10/26 10:02:53;;;;;;;3.78;1.38;;;;;;;;;;12912247;23;20023;-74
2022/10/26 10:08:12;;;;;;;6.72;1.92;;;;;;;;;;12936720;22;19988;-74
2022/10/26 10:13:13;;;;;;;6.57;1.90;;;;;;;;;;12911854;23;19995;-74
2022/10/26 10:18:18;;;;;;;7.97;2.15;;;;;;;;;;12911344;23;20018;-75
2022/10/26 10:23:31;;;;;;;4.72;2.10;;;;;;;;;;12911788;23;20153;-78
2022/10/26 10:28:32;;;;;;;5.38;1.20;;;;;;;;;;12934533;22;20467;-76
2022/10/26 10:33:34;;;;;;;4.35;1.30;;;;;;;;;;12911902;23;20068;-74
2022/10/26 10:38:39;;;;;;;3.95;1.42;;;;;;;;;;12932657;23;20419;-79
2022/10/26 10:43:42;;;;;;;5.38;1.88;;;;;;;;;;12911183;23;20333;-77
2022/10/26 10:48:45;;;;;;;5.40;1.33;;;;;;;;;;12927282;23;20019;-75
2022/10/26 10:53:54;;;;;;;3.97;1.05;;;;;;;;;;12912421;23;20027;-76
2022/10/26 10:59:14;;;;;;;8.07;1.58;;;;;;;;;;12911237;23;20444;-73
2022/10/26 11:04:14;;;;;;;6.68;1.83;;;;;;;;;;12919378;22;20047;-75
2022/10/26 11:09:18;;;;;;;3.92;1.40;;;;;;;;;;12910803;23;19995;-75
2022/10/26 11:14:30;;;;;;;3.95;1.70;;;;;;;;;;12910191;23;20004;-74
2022/10/26 11:19:39;;;;;;;12.02;2.00;;;;;;;;;;12910134;23;19992;-75
2022/10/26 11:24:39;;;;;;;4.47;1.42;;;;;;;;;;12907974;23;20000;-74
2022/10/26 11:29:39;;;;;;;4.53;1.30;;;;;;;;;;12909870;23;19989;-75
2022/10/26 11:34:50;;;;;;;10.15;2.33;;;;;;;;;;12933610;22;20019;-75
2022/10/26 11:40:02;;;;;;;8.73;1.55;;;;;;;;;;12910056;23;20000;-73
2022/10/26 11:45:16;;;;;;;5.65;2.00;;;;;;;;;;12908601;23;20029;-75
2022/10/26 11:50:21;;;;;;;5.40;1.90;;;;;;;;;;12908370;22;19999;-76
2022/10/26 11:55:22;;;;;;;6.90;1.98;;;;;;;;;;12883665;23;19996;-73
2022/10/26 12:00:22;;;;;;;4.38;1.70;;;;;;;;;;12933072;22;20000;-74
2022/10/26 12:05:23;;;;;;;5.28;1.58;;;;;;;;;;12908754;23;20024;-75
2022/10/26 12:10:25;;;;;;;3.03;1.80;;;;;;;;;;12930059;22;20007;-74
2022/10/26 12:15:32;;;;;;;4.35;1.88;;;;;;;;;;12909849;23;20332;-73
2022/10/26 12:20:35;;;;;;;4.60;1.58;;;;;;;;;;12909712;23;20002;-78
2022/10/26 12:25:35;;;;;;;6.35;1.40;;;;;;;;;;12909679;23;20444;-74
2022/10/26 12:30:36;;;;;;;2.75;1.33;;;;;;;;;;12908237;23;20054;-75
2022/10/26 12:35:37;;;;;;;2.80;0.93;;;;;;;;;;12931372;22;20003;-75
2022/10/26 12:40:39;;;;;;;2.53;1.42;;;;;;;;;;12930098;23;20451;-74
2022/10/26 12:45:44;;;;;;;8.02;4.20;;;;;;;;;;12910013;23;20004;-73
2022/10/26 12:50:44;;;;;;;1.83;1.20;;;;;;;;;;12908140;23;19992;-75
2022/10/26 12:55:45;;;;;;;2.55;1.13;;;;;;;;;;12911232;22;20118;-74
2022/10/26 13:00:57;;;;;;;2.92;1.23;;;;;;;;;;12932370;22;19999;-76
2022/10/26 13:06:03;;;;;;;3.25;0.93;;;;;;;;;;12911595;23;20027;-76
2022/10/26 13:11:24;;;;;;;1.45;0.93;;;;;;;;;;12914054;23;19996;-74
2022/10/26 13:16:25;;;;;;;9.93;1.00;;;;;;;;;;12912232;23;20387;-75
2022/10/26 13:21:26;;;;;;;5.93;0.90;;;;;;;;;;12932437;23;20000;-74
2022/10/26 13:26:28;;;;;;;3.35;1.50;;;;;;;;;;12913245;23;19989;-75
2022/10/26 13:31:31;;;;;;;6.03;1.58;;;;;;;;;;12936322;22;20042;-75
2022/10/26 13:36:40;;;;;;;2.75;0.90;;;;;;;;;;12912904;23;19992;-74
2022/10/26 13:41:45;;;;;;;2.60;1.10;;;;;;;;;;12910512;23;19996;-74
2022/10/26 13:46:48;;;;;;;2.85;1.02;;;;;;;;;;12910782;23;19988;-74
2022/10/26 13:51:50;;;;;;;4.68;1.30;;;;;;;;;;12912777;23;19992;-73
2022/10/26 13:57:16;;;;;;;7.28;1.20;;;;;;;;;;12910963;23;19992;-76
2022/10/26 14:02:20;;;;;;;3.85;1.42;;;;;;;;;;12895814;22;20422;-77
2022/10/26 14:07:23;;;;;;;2.95;1.13;;;;;;;;;;12912199;23;20080;-74
2022/10/26 14:12:24;;;;;;;8.15;1.40;;;;;;;;;;12926196;23;20355;-74
2022/10/26 14:17:25;;;;;;;5.55;1.15;;;;;;;;;;12910246;23;20030;-74
2022/10/26 14:22:27;;;;;;;1.37;0.97;;;;;;;;;;12911208;23;19996;-73
2022/10/26 14:27:31;;;;;;;1.67;1.10;;;;;;;;;;12885648;23;19988;-75
2022/10/26 14:32:32;;;;;;;3.80;1.02;;;;;;;;;;12933811;22;20013;-79
2022/10/26 14:37:32;;;;;;;3.20;1.42;;;;;;;;;;12909849;23;20007;-74
2022/10/26 14:42:39;;;;;;;3.30;1.20;;;;;;;;;;12907987;23;20401;-74
2022/10/26 14:47:43;;;;;;;7.28;1.20;;;;;;;;;;12910724;23;19984;-74
2022/10/26 14:52:48;;;;;;;5.13;1.23;;;;;;;;;;12907823;23;20428;-79
2022/10/26 14:57:50;;;;;;;9.05;1.40;;;;;;;;;;12906920;23;20000;-76
2022/10/26 15:02:57;;;;;;;8.82;1.40;;;;;;;;;;12906025;23;20024;-75
2022/10/26 15:07:57;;;;;;;8.80;1.95;;;;;;;;;;12930989;22;20487;-75
2022/10/26 15:13:06;;;;;;;7.30;2.90;;;;;;;;;;12910326;23;20008;-74
2022/10/26 15:18:17;;;;;;;17.05;3.45;;;;;;;;;;12909048;23;20004;-75
2022/10/26 15:23:18;;;;;;;6.45;2.90;;;;;;;;;;12909612;23;20004;-75
2022/10/26 15:28:18;;;;;;;14.73;4.15;;;;;;;;;;12909238;23;20077;-75
2022/10/26 15:33:20;;;;;;;20.27;5.38;;;;;;;;;;12907828;23;20066;-74
2022/10/26 15:38:24;;;;;;;12.40;3.35;;;;;;;;;;12909120;23;20071;-74
2022/10/26 15:43:24;;;;;;;10.48;3.67;;;;;;;;;;12910276;22;20000;-74
2022/10/26 15:48:27;;;;;;;11.55;3.25;;;;;;;;;;12908622;23;20018;-76
2022/10/26 15:53:29;;;;;;;9.35;4.05;;;;;;;;;;12908191;23;20067;-75
2022/10/26 15:58:30;;;;;;;17.25;4.85;;;;;;;;;;12908873;23;20000;-75
2022/10/26 16:03:31;;;;;;;8.45;2.55;;;;;;;;;;12922559;22;20095;-78
2022/10/26 16:08:32;;;;;;;13.35;3.63;;;;;;;;;;12882646;23;20334;-76
2022/10/26 16:13:32;;;;;;;12.23;3.78;;;;;;;;;;12908197;23;20023;-74
2022/10/26 16:18:32;;;;;;;15.65;4.82;;;;;;;;;;12907608;23;19999;-74
2022/10/26 16:23:32;;;;;;;11.23;3.72;;;;;;;;;;12906596;23;19999;-74
2022/10/26 16:28:35;;;;;;;23.73;6.15;;;;;;;;;;12911475;23;20080;-76
2022/10/26 16:33:35;;;;;;;10.38;4.85;;;;;;;;;;12940511;23;19996;-74
2022/10/26 16:38:36;;;;;;;13.93;4.80;;;;;;;;;;12920314;23;20027;-79
2022/10/26 16:43:37;;;;;;;8.45;4.43;;;;;;;;;;12914300;23;20235;-79
2022/10/26 16:48:38;;;;;;;8.80;2.80;;;;;;;;;;12912693;23;19989;-79
2022/10/26 16:53:39;;;;;;;11.77;3.13;;;;;;;;;;12913181;23;20051;-77
2022/10/26 16:58:40;;;;;;;9.00;3.75;;;;;;;;;;12912844;22;20031;-77
2022/10/26 17:03:40;;;;;;;9.27;3.13;;;;;;;;;;12906375;23;20024;-78
2022/10/26 17:08:41;;;;;;;11.88;3.13;;;;;;;;;;12905741;23;20490;-77
2022/10/26 17:13:41;;;;;;;4.72;2.75;;;;;;;;;;12911389;23;20352;-79
2022/10/26 17:18:42;;;;;;;9.32;2.92;;;;;;;;;;12910487;23;19996;-80
2022/10/26 17:23:43;;;;;;;11.98;3.65;;;;;;;;;;12909107;23;20000;-80
2022/10/26 17:28:43;;;;;;;8.50;4.20;;;;;;;;;;12904900;23;20012;-76
2022/10/26 17:33:44;;;;;;;12.02;4.13;;;;;;;;;;12909107;23;20447;-78
2022/10/26 17:38:46;;;;;;;11.88;4.72;;;;;;;;;;12932617;22;20325;-78
2022/10/26 17:43:47;;;;;;;11.88;5.15;;;;;;;;;;12913210;23;19996;-78
2022/10/26 17:48:53;;;;;;;9.02;3.97;;;;;;;;;;12908038;23;20024;-78
2022/10/26 17:53:53;;;;;;;8.73;3.90;;;;;;;;;;12906336;22;19993;-78
2022/10/26 17:58:55;;;;;;;11.00;4.30;;;;;;;;;;12907768;23;20006;-77
2022/10/26 18:03:56;;;;;;;11.07;4.10;;;;;;;;;;12918525;23;20048;-78
2022/10/26 18:08:56;;;;;;;18.05;4.22;;;;;;;;;;12905683;23;20007;-79
2022/10/26 18:13:56;;;;;;;13.45;4.35;;;;;;;;;;12905452;23;20122;-76
2022/10/26 18:19:01;;;;;;;12.75;4.30;;;;;;;;;;12905394;22;19996;-76
2022/10/26 18:24:02;;;;;;;11.98;4.47;;;;;;;;;;12904782;23;20349;-75
2022/10/26 18:29:03;;;;;;;13.23;4.80;;;;;;;;;;12927819;22;19999;-77
2022/10/26 18:34:05;;;;;;;10.38;4.20;;;;;;;;;;12903964;22;20241;-79
2022/10/26 18:39:06;;;;;;;8.90;3.97;;;;;;;;;;12905213;23;20107;-75
2022/10/26 18:44:07;;;;;;;11.35;5.18;;;;;;;;;;12879736;23;20429;-78
2022/10/26 18:49:07;;;;;;;19.02;4.68;;;;;;;;;;12900874;23;19992;-79
2022/10/26 18:54:08;;;;;;;13.97;5.07;;;;;;;;;;12922371;22;19988;-78
2022/10/26 18:59:09;;;;;;;14.50;4.65;;;;;;;;;;12903535;23;20002;-76
2022/10/26 19:04:10;;;;;;;12.07;5.15;;;;;;;;;;12904114;23;20012;-77
2022/10/26 19:09:10;;;;;;;10.13;4.95;;;;;;;;;;12911710;23;20339;-77
2022/10/26 19:14:11;;;;;;;16.05;5.97;;;;;;;;;;12915639;23;20016;-75
2022/10/26 19:19:11;;;;;;;12.90;5.38;;;;;;;;;;12956344;22;19999;-76
2022/10/26 19:24:17;;;;;;;31.73;6.50;;;;;;;;;;12919556;23;19996;-74
2022/10/26 19:29:18;;;;;;;14.23;5.05;;;;;;;;;;12933036;23;20458;-77
2022/10/26 19:34:20;;;;;;;13.48;5.70;;;;;;;;;;12882368;23;19996;-72
2022/10/26 19:39:21;;;;;;;10.57;5.63;;;;;;;;;;12907124;23;20001;-77
2022/10/26 19:44:21;;;;;;;16.35;5.05;;;;;;;;;;12931719;22;19996;-73
2022/10/26 19:49:22;;;;;;;13.07;5.75;;;;;;;;;;12908931;23;20437;-73
2022/10/26 19:54:22;;;;;;;12.82;4.43;;;;;;;;;;12909320;23;20000;-74
2022/10/26 19:59:22;;;;;;;9.20;3.10;;;;;;;;;;12881894;23;20486;-74
2022/10/26 20:04:23;;;;;;;13.57;4.20;;;;;;;;;;12906769;22;20294;-79
2022/10/26 20:09:24;;;;;;;12.48;4.65;;;;;;;;;;12908382;23;19995;-76
2022/10/26 20:14:24;;;;;;;16.20;4.88;;;;;;;;;;12907902;23;19992;-78
2022/10/26 20:19:25;;;;;;;12.48;3.88;;;;;;;;;;12907301;22;20301;-79
2022/10/26 20:24:25;;;;;;;11.43;4.47;;;;;;;;;;12907083;23;20784;-75
2022/10/26 20:29:25;;;;;;;24.20;5.35;;;;;;;;;;12907565;23;19999;-75
2022/10/26 20:34:25;;;;;;;15.50;5.75;;;;;;;;;;12908156;23;19996;-76
2022/10/26 20:39:27;;;;;;;16.80;7.05;;;;;;;;;;12909362;22;20660;-78
2022/10/26 20:44:31;;;;;;;11.43;4.87;;;;;;;;;;12907117;23;20069;-77
2022/10/26 20:49:31;;;;;;;14.63;5.28;;;;;;;;;;12907245;23;20322;-76
2022/10/26 20:54:38;;;;;;;18.53;5.10;;;;;;;;;;12907423;23;20440;-73
2022/10/26 20:59:45;;;;;;;11.90;4.35;;;;;;;;;;12907360;23;20322;-77
2022/10/26 21:04:45;;;;;;;10.75;4.72;;;;;;;;;;12881471;23;20474;-72
2022/10/26 21:09:46;;;;;;;13.52;4.07;;;;;;;;;;12907690;23;20061;-78
2022/10/26 21:14:46;;;;;;;10.13;4.13;;;;;;;;;;12908490;22;20539;-76
2022/10/26 21:19:46;;;;;;;14.40;5.03;;;;;;;;;;12907758;23;19992;-74
2022/10/26 21:24:46;;;;;;;11.77;4.53;;;;;;;;;;12907677;23;20004;-74
2022/10/26 21:29:47;;;;;;;9.93;4.20;;;;;;;;;;12911437;23;20463;-73
2022/10/26 21:34:47;;;;;;;10.35;4.88;;;;;;;;;;12911000;23;19988;-77
2022/10/26 21:39:47;;;;;;;11.30;4.45;;;;;;;;;;12911253;22;20063;-72
2022/10/26 21:44:47;;;;;;;8.35;5.10;;;;;;;;;;12911065;23;20003;-72
2022/10/26 21:49:48;;;;;;;15.35;6.10;;;;;;;;;;12911940;22;20340;-73
2022/10/26 21:54:48;;;;;;;15.90;3.83;;;;;;;;;;12911215;23;20031;-76
2022/10/26 21:59:48;;;;;;;10.88;4.88;;;;;;;;;;12938559;22;19992;-76
2022/10/26 22:04:48;;;;;;;8.05;4.05;;;;;;;;;;12917898;23;20016;-81
2022/10/26 22:09:49;;;;;;;7.10;3.38;;;;;;;;;;12914736;23;19992;-76
2022/10/26 22:14:49;;;;;;;10.15;3.80;;;;;;;;;;12936311;22;19992;-81
2022/10/26 22:19:49;;;;;;;8.63;3.60;;;;;;;;;;12913480;23;19992;-78
2022/10/26 22:24:49;;;;;;;8.05;3.67;;;;;;;;;;12912458;22;20004;-77
2022/10/26 22:29:50;;;;;;;10.20;3.50;;;;;;;;;;12912462;23;19996;-74
2022/10/26 22:34:50;;;;;;;6.35;3.45;;;;;;;;;;12913179;23;20514;-74
2022/10/26 22:39:50;;;;;;;15.15;3.90;;;;;;;;;;12912918;23;20481;-74
2022/10/26 22:44:50;;;;;;;4.68;2.60;;;;;;;;;;12913093;23;20031;-77
2022/10/26 22:49:52;;;;;;;5.13;3.27;;;;;;;;;;12887987;23;20000;-79
2022/10/26 22:54:52;;;;;;;11.15;5.32;;;;;;;;;;12912675;23;20586;-74
2022/10/26 22:59:53;;;;;;;8.98;2.80;;;;;;;;;;12912810;23;20298;-77
2022/10/26 23:04:53;;;;;;;10.57;3.75;;;;;;;;;;12913059;23;20066;-73
2022/10/26 23:09:53;;;;;;;5.70;3.15;;;;;;;;;;12935850;22;20020;-73
2022/10/26 23:14:53;;;;;;;11.05;3.95;;;;;;;;;;12913736;23;19995;-77
2022/10/26 23:19:54;;;;;;;6.28;2.85;;;;;;;;;;12914646;22;20018;-74
2022/10/26 23:24:56;;;;;;;4.72;2.58;;;;;;;;;;12930435;22;20020;-77
2022/10/26 23:29:56;;;;;;;7.45;3.72;;;;;;;;;;12912924;22;20478;-81
2022/10/26 23:34:56;;;;;;;4.63;2.45;;;;;;;;;;12912439;23;20000;-77
2022/10/26 23:39:56;;;;;;;6.45;2.60;;;;;;;;;;12935653;22;19996;-76
2022/10/26 23:44:57;;;;;;;6.72;2.08;;;;;;;;;;12912814;23;20008;-76
2022/10/26 23:49:57;;;;;;;4.30;2.15;;;;;;;;;;12912216;23;20007;-72
2022/10/26 23:54:57;;;;;;;3.88;2.03;;;;;;;;;;12913353;23;19988;-74
2022/10/26 23:59:57;;;;;;;8.68;2.33;;;;;;;;;;12912853;23;20008;-78
